sensor_id;sensor_type;location;lat;lon;timestamp;P1;durP1;ratioP1;P2;durP2;ratioP2
52668;SDS011;59898;52.786;6.892;2023-07-28T00:00:31;23.33;;;14.73;;
52668;SDS011;59898;52.786;6.892;2023-07-28T00:03:51;21.95;;;15.10;;
52668;SDS011;59898;52.786;6.892;2023-07-28T00:07:12;23.25;;;15.95;;
52668;SDS011;59898;52.786;6.892;2023-07-28T00:10:32;25.27;;;15.55;;
52668;SDS011;59898;52.786;6.892;2023-07-28T00:13:53;23.25;;;15.68;;
52668;SDS011;59898;52.786;6.892;2023-07-28T00:17:13;22.20;;;14.38;;
52668;SDS011;59898;52.786;6.892;2023-07-28T00:20:34;24.48;;;14.77;;
52668;SDS011;59898;52.786;6.892;2023-07-28T00:23:55;22.73;;;15.38;;
52668;SDS011;59898;52.786;6.892;2023-07-28T00:27:15;26.20;;;16.02;;
52668;SDS011;59898;52.786;6.892;2023-07-28T00:30:36;21.90;;;14.65;;
52668;SDS011;59898;52.786;6.892;2023-07-28T00:33:56;23.25;;;15.52;;
52668;SDS011;59898;52.786;6.892;2023-07-28T00:37:17;23.23;;;15.02;;
52668;SDS011;59898;52.786;6.892;2023-07-28T00:40:37;24.08;;;14.50;;
52668;SDS011;59898;52.786;6.892;2023-07-28T00:43:58;21.60;;;14.45;;
52668;SDS011;59898;52.786;6.892;2023-07-28T00:47:18;19.13;;;14.70;;
52668;SDS011;59898;52.786;6.892;2023-07-28T00:50:40;25.70;;;15.20;;
52668;SDS011;59898;52.786;6.892;2023-07-28T00:54:04;22.33;;;15.32;;
52668;SDS011;59898;52.786;6.892;2023-07-28T00:57:25;28.95;;;14.70;;
52668;SDS011;59898;52.786;6.892;2023-07-28T01:00:46;22.65;;;14.70;;
52668;SDS011;59898;52.786;6.892;2023-07-28T01:04:07;27.02;;;16.92;;
52668;SDS011;59898;52.786;6.892;2023-07-28T01:07:38;25.25;;;15.32;;
52668;SDS011;59898;52.786;6.892;2023-07-28T01:11:18;26.60;;;16.00;;
52668;SDS011;59898;52.786;6.892;2023-07-28T01:14:39;23.40;;;16.75;;
52668;SDS011;59898;52.786;6.892;2023-07-28T01:17:59;25.85;;;17.40;;
52668;SDS011;59898;52.786;6.892;2023-07-28T01:21:22;26.42;;;17.55;;
52668;SDS011;59898;52.786;6.892;2023-07-28T01:24:51;34.00;;;17.42;;
52668;SDS011;59898;52.786;6.892;2023-07-28T01:28:23;24.88;;;17.20;;
52668;SDS011;59898;52.786;6.892;2023-07-28T01:31:46;28.40;;;18.05;;
52668;SDS011;59898;52.786;6.892;2023-07-28T01:35:07;26.98;;;17.15;;
52668;SDS011;59898;52.786;6.892;2023-07-28T01:38:28;24.60;;;15.95;;
52668;SDS011;59898;52.786;6.892;2023-07-28T01:41:49;27.17;;;17.38;;
52668;SDS011;59898;52.786;6.892;2023-07-28T01:45:09;31.17;;;19.15;;
52668;SDS011;59898;52.786;6.892;2023-07-28T01:48:30;32.63;;;19.42;;
52668;SDS011;59898;52.786;6.892;2023-07-28T01:51:51;31.70;;;17.90;;
52668;SDS011;59898;52.786;6.892;2023-07-28T01:55:11;28.35;;;19.08;;
52668;SDS011;59898;52.786;6.892;2023-07-28T01:58:32;32.65;;;20.60;;
52668;SDS011;59898;52.786;6.892;2023-07-28T02:01:52;34.58;;;19.42;;
52668;SDS011;59898;52.786;6.892;2023-07-28T02:05:13;36.72;;;20.67;;
52668;SDS011;59898;52.786;6.892;2023-07-28T02:08:33;28.35;;;18.65;;
52668;SDS011;59898;52.786;6.892;2023-07-28T02:11:54;38.17;;;19.83;;
52668;SDS011;59898;52.786;6.892;2023-07-28T02:15:14;36.95;;;20.15;;
52668;SDS011;59898;52.786;6.892;2023-07-28T02:18:35;34.00;;;19.08;;
52668;SDS011;59898;52.786;6.892;2023-07-28T02:21:56;32.00;;;18.27;;
52668;SDS011;59898;52.786;6.892;2023-07-28T02:25:16;32.08;;;19.88;;
52668;SDS011;59898;52.786;6.892;2023-07-28T02:28:37;32.97;;;18.08;;
52668;SDS011;59898;52.786;6.892;2023-07-28T02:31:57;31.08;;;18.10;;
52668;SDS011;59898;52.786;6.892;2023-07-28T02:35:18;30.27;;;17.95;;
52668;SDS011;59898;52.786;6.892;2023-07-28T02:38:38;32.80;;;20.05;;
52668;SDS011;59898;52.786;6.892;2023-07-28T02:41:59;29.70;;;17.70;;
52668;SDS011;59898;52.786;6.892;2023-07-28T02:45:20;26.20;;;17.08;;
52668;SDS011;59898;52.786;6.892;2023-07-28T02:48:40;29.88;;;18.80;;
52668;SDS011;59898;52.786;6.892;2023-07-28T02:52:01;23.85;;;17.52;;
52668;SDS011;59898;52.786;6.892;2023-07-28T02:55:23;29.03;;;17.67;;
52668;SDS011;59898;52.786;6.892;2023-07-28T02:58:43;27.48;;;18.60;;
52668;SDS011;59898;52.786;6.892;2023-07-28T03:02:04;27.02;;;16.75;;
52668;SDS011;59898;52.786;6.892;2023-07-28T03:05:24;25.83;;;16.73;;
52668;SDS011;59898;52.786;6.892;2023-07-28T03:08:45;24.65;;;17.40;;
52668;SDS011;59898;52.786;6.892;2023-07-28T03:12:06;29.83;;;17.27;;
52668;SDS011;59898;52.786;6.892;2023-07-28T03:15:27;32.75;;;18.67;;
52668;SDS011;59898;52.786;6.892;2023-07-28T03:18:47;24.70;;;18.35;;
52668;SDS011;59898;52.786;6.892;2023-07-28T03:22:08;27.42;;;18.73;;
52668;SDS011;59898;52.786;6.892;2023-07-28T03:25:29;35.53;;;18.08;;
52668;SDS011;59898;52.786;6.892;2023-07-28T03:28:49;25.58;;;17.20;;
52668;SDS011;59898;52.786;6.892;2023-07-28T03:32:10;31.45;;;18.60;;
52668;SDS011;59898;52.786;6.892;2023-07-28T03:35:30;30.38;;;19.15;;
52668;SDS011;59898;52.786;6.892;2023-07-28T03:38:51;28.77;;;17.83;;
52668;SDS011;59898;52.786;6.892;2023-07-28T03:42:11;28.15;;;17.48;;
52668;SDS011;59898;52.786;6.892;2023-07-28T03:45:32;25.00;;;16.83;;
52668;SDS011;59898;52.786;6.892;2023-07-28T03:48:53;29.45;;;17.15;;
52668;SDS011;59898;52.786;6.892;2023-07-28T03:52:13;31.58;;;19.00;;
52668;SDS011;59898;52.786;6.892;2023-07-28T03:55:34;29.27;;;19.35;;
52668;SDS011;59898;52.786;6.892;2023-07-28T03:58:55;25.08;;;17.30;;
52668;SDS011;59898;52.786;6.892;2023-07-28T04:02:15;26.08;;;16.95;;
52668;SDS011;59898;52.786;6.892;2023-07-28T04:05:36;31.20;;;18.30;;
52668;SDS011;59898;52.786;6.892;2023-07-28T04:08:57;29.63;;;17.15;;
52668;SDS011;59898;52.786;6.892;2023-07-28T04:12:18;23.80;;;17.13;;
52668;SDS011;59898;52.786;6.892;2023-07-28T04:15:38;29.02;;;18.17;;
52668;SDS011;59898;52.786;6.892;2023-07-28T04:18:59;28.75;;;17.98;;
52668;SDS011;59898;52.786;6.892;2023-07-28T04:22:19;32.90;;;17.35;;
52668;SDS011;59898;52.786;6.892;2023-07-28T04:25:41;32.83;;;18.73;;
52668;SDS011;59898;52.786;6.892;2023-07-28T04:29:02;24.88;;;16.60;;
52668;SDS011;59898;52.786;6.892;2023-07-28T04:32:22;30.27;;;16.95;;
52668;SDS011;59898;52.786;6.892;2023-07-28T04:35:43;33.00;;;17.20;;
52668;SDS011;59898;52.786;6.892;2023-07-28T04:39:03;24.77;;;17.42;;
52668;SDS011;59898;52.786;6.892;2023-07-28T04:42:24;25.73;;;17.95;;
52668;SDS011;59898;52.786;6.892;2023-07-28T04:45:45;34.28;;;17.55;;
52668;SDS011;59898;52.786;6.892;2023-07-28T04:49:05;27.48;;;16.45;;
52668;SDS011;59898;52.786;6.892;2023-07-28T04:52:26;26.48;;;17.38;;
52668;SDS011;59898;52.786;6.892;2023-07-28T04:55:46;25.73;;;17.45;;
52668;SDS011;59898;52.786;6.892;2023-07-28T04:59:07;32.28;;;18.77;;
52668;SDS011;59898;52.786;6.892;2023-07-28T05:02:27;24.77;;;16.17;;
52668;SDS011;59898;52.786;6.892;2023-07-28T05:05:49;23.33;;;16.25;;
52668;SDS011;59898;52.786;6.892;2023-07-28T05:09:10;28.73;;;16.95;;
52668;SDS011;59898;52.786;6.892;2023-07-28T05:12:31;27.30;;;17.70;;
52668;SDS011;59898;52.786;6.892;2023-07-28T05:15:51;25.95;;;16.63;;
52668;SDS011;59898;52.786;6.892;2023-07-28T05:19:12;28.35;;;17.75;;
52668;SDS011;59898;52.786;6.892;2023-07-28T05:22:33;22.77;;;16.33;;
52668;SDS011;59898;52.786;6.892;2023-07-28T05:25:53;30.38;;;17.60;;
52668;SDS011;59898;52.786;6.892;2023-07-28T05:29:14;27.40;;;17.00;;
52668;SDS011;59898;52.786;6.892;2023-07-28T05:32:34;27.52;;;16.30;;
52668;SDS011;59898;52.786;6.892;2023-07-28T05:36:02;26.00;;;18.15;;
52668;SDS011;59898;52.786;6.892;2023-07-28T05:39:23;31.73;;;18.77;;
52668;SDS011;59898;52.786;6.892;2023-07-28T05:42:43;30.83;;;17.80;;
52668;SDS011;59898;52.786;6.892;2023-07-28T05:46:04;28.30;;;18.20;;
52668;SDS011;59898;52.786;6.892;2023-07-28T05:49:24;23.00;;;16.42;;
52668;SDS011;59898;52.786;6.892;2023-07-28T05:52:45;29.40;;;17.55;;
52668;SDS011;59898;52.786;6.892;2023-07-28T05:56:07;30.25;;;19.13;;
52668;SDS011;59898;52.786;6.892;2023-07-28T05:59:27;30.02;;;18.45;;
52668;SDS011;59898;52.786;6.892;2023-07-28T06:02:48;28.25;;;17.88;;
52668;SDS011;59898;52.786;6.892;2023-07-28T06:06:09;23.58;;;16.63;;
52668;SDS011;59898;52.786;6.892;2023-07-28T06:09:30;26.48;;;16.90;;
52668;SDS011;59898;52.786;6.892;2023-07-28T06:12:50;26.00;;;18.00;;
52668;SDS011;59898;52.786;6.892;2023-07-28T06:16:11;28.88;;;17.63;;
52668;SDS011;59898;52.786;6.892;2023-07-28T06:19:31;34.35;;;20.10;;
52668;SDS011;59898;52.786;6.892;2023-07-28T06:22:52;28.83;;;18.25;;
52668;SDS011;59898;52.786;6.892;2023-07-28T06:26:13;30.38;;;18.30;;
52668;SDS011;59898;52.786;6.892;2023-07-28T06:29:33;24.50;;;18.13;;
52668;SDS011;59898;52.786;6.892;2023-07-28T06:32:54;23.67;;;16.33;;
52668;SDS011;59898;52.786;6.892;2023-07-28T06:36:14;24.20;;;15.82;;
52668;SDS011;59898;52.786;6.892;2023-07-28T06:39:35;25.50;;;17.27;;
52668;SDS011;59898;52.786;6.892;2023-07-28T06:42:55;28.85;;;16.33;;
52668;SDS011;59898;52.786;6.892;2023-07-28T06:46:16;27.05;;;16.70;;
52668;SDS011;59898;52.786;6.892;2023-07-28T06:49:36;27.23;;;15.60;;
52668;SDS011;59898;52.786;6.892;2023-07-28T06:52:57;22.95;;;14.00;;
52668;SDS011;59898;52.786;6.892;2023-07-28T06:56:18;26.95;;;14.75;;
52668;SDS011;59898;52.786;6.892;2023-07-28T06:59:38;23.75;;;14.95;;
52668;SDS011;59898;52.786;6.892;2023-07-28T07:02:59;24.08;;;14.38;;
52668;SDS011;59898;52.786;6.892;2023-07-28T07:06:19;22.48;;;13.50;;
52668;SDS011;59898;52.786;6.892;2023-07-28T07:09:40;24.00;;;15.32;;
52668;SDS011;59898;52.786;6.892;2023-07-28T07:13:01;27.65;;;14.98;;
52668;SDS011;59898;52.786;6.892;2023-07-28T07:16:22;23.13;;;14.63;;
52668;SDS011;59898;52.786;6.892;2023-07-28T07:19:43;22.25;;;14.27;;
52668;SDS011;59898;52.786;6.892;2023-07-28T07:23:04;18.63;;;13.05;;
52668;SDS011;59898;52.786;6.892;2023-07-28T07:26:25;21.23;;;14.10;;
52668;SDS011;59898;52.786;6.892;2023-07-28T07:29:45;21.38;;;13.65;;
52668;SDS011;59898;52.786;6.892;2023-07-28T07:33:06;18.50;;;12.80;;
52668;SDS011;59898;52.786;6.892;2023-07-28T07:36:26;20.55;;;13.57;;
52668;SDS011;59898;52.786;6.892;2023-07-28T07:39:47;18.85;;;13.35;;
52668;SDS011;59898;52.786;6.892;2023-07-28T07:43:08;16.50;;;12.43;;
52668;SDS011;59898;52.786;6.892;2023-07-28T07:46:28;17.98;;;11.23;;
52668;SDS011;59898;52.786;6.892;2023-07-28T07:49:49;13.68;;;11.38;;
52668;SDS011;59898;52.786;6.892;2023-07-28T07:53:09;13.52;;;9.50;;
52668;SDS011;59898;52.786;6.892;2023-07-28T07:56:30;18.60;;;12.65;;
52668;SDS011;59898;52.786;6.892;2023-07-28T07:59:50;13.20;;;11.80;;
52668;SDS011;59898;52.786;6.892;2023-07-28T08:03:11;17.65;;;11.18;;
52668;SDS011;59898;52.786;6.892;2023-07-28T08:06:31;17.05;;;13.05;;
52668;SDS011;59898;52.786;6.892;2023-07-28T08:09:53;14.57;;;10.90;;
52668;SDS011;59898;52.786;6.892;2023-07-28T08:13:14;14.68;;;12.00;;
52668;SDS011;59898;52.786;6.892;2023-07-28T08:16:35;17.38;;;11.10;;
52668;SDS011;59898;52.786;6.892;2023-07-28T08:19:55;21.92;;;13.15;;
52668;SDS011;59898;52.786;6.892;2023-07-28T08:23:16;20.92;;;11.30;;
52668;SDS011;59898;52.786;6.892;2023-07-28T08:26:37;17.90;;;12.48;;
52668;SDS011;59898;52.786;6.892;2023-07-28T08:29:57;16.92;;;10.65;;
52668;SDS011;59898;52.786;6.892;2023-07-28T08:33:18;18.70;;;11.75;;
52668;SDS011;59898;52.786;6.892;2023-07-28T08:36:38;13.02;;;10.20;;
52668;SDS011;59898;52.786;6.892;2023-07-28T08:39:59;12.80;;;8.98;;
52668;SDS011;59898;52.786;6.892;2023-07-28T08:43:19;17.23;;;10.25;;
52668;SDS011;59898;52.786;6.892;2023-07-28T08:46:40;16.27;;;8.93;;
52668;SDS011;59898;52.786;6.892;2023-07-28T08:50:00;17.95;;;10.48;;
52668;SDS011;59898;52.786;6.892;2023-07-28T08:53:21;10.95;;;8.20;;
52668;SDS011;59898;52.786;6.892;2023-07-28T08:56:42;14.98;;;8.18;;
52668;SDS011;59898;52.786;6.892;2023-07-28T09:00:07;13.38;;;8.90;;
52668;SDS011;59898;52.786;6.892;2023-07-28T09:03:30;11.50;;;7.95;;
52668;SDS011;59898;52.786;6.892;2023-07-28T09:06:51;11.63;;;7.30;;
52668;SDS011;59898;52.786;6.892;2023-07-28T09:10:12;9.85;;;7.22;;
52668;SDS011;59898;52.786;6.892;2023-07-28T09:13:36;16.55;;;6.47;;
52668;SDS011;59898;52.786;6.892;2023-07-28T09:17:10;13.50;;;8.20;;
52668;SDS011;59898;52.786;6.892;2023-07-28T09:20:33;9.48;;;7.43;;
52668;SDS011;59898;52.786;6.892;2023-07-28T09:23:55;7.75;;;6.47;;
52668;SDS011;59898;52.786;6.892;2023-07-28T09:27:24;12.18;;;6.82;;
52668;SDS011;59898;52.786;6.892;2023-07-28T09:30:47;13.48;;;8.18;;
52668;SDS011;59898;52.786;6.892;2023-07-28T09:34:09;11.32;;;8.85;;
52668;SDS011;59898;52.786;6.892;2023-07-28T09:37:30;10.63;;;7.22;;
52668;SDS011;59898;52.786;6.892;2023-07-28T09:40:52;10.73;;;7.65;;
52668;SDS011;59898;52.786;6.892;2023-07-28T09:44:14;9.93;;;7.47;;
52668;SDS011;59898;52.786;6.892;2023-07-28T09:47:36;8.35;;;7.38;;
52668;SDS011;59898;52.786;6.892;2023-07-28T09:50:57;12.50;;;8.23;;
52668;SDS011;59898;52.786;6.892;2023-07-28T09:54:27;13.98;;;8.55;;
52668;SDS011;59898;52.786;6.892;2023-07-28T09:57:50;11.90;;;8.55;;
52668;SDS011;59898;52.786;6.892;2023-07-28T10:01:13;14.57;;;8.38;;
52668;SDS011;59898;52.786;6.892;2023-07-28T10:04:34;11.20;;;8.20;;
52668;SDS011;59898;52.786;6.892;2023-07-28T10:07:55;9.88;;;6.70;;
52668;SDS011;59898;52.786;6.892;2023-07-28T10:11:16;9.65;;;7.30;;
52668;SDS011;59898;52.786;6.892;2023-07-28T10:14:38;18.02;;;8.43;;
52668;SDS011;59898;52.786;6.892;2023-07-28T10:17:59;16.20;;;7.72;;
52668;SDS011;59898;52.786;6.892;2023-07-28T10:21:20;13.13;;;7.25;;
52668;SDS011;59898;52.786;6.892;2023-07-28T10:24:50;10.93;;;8.10;;
52668;SDS011;59898;52.786;6.892;2023-07-28T10:28:25;16.20;;;8.00;;
52668;SDS011;59898;52.786;6.892;2023-07-28T10:31:53;10.10;;;6.35;;
52668;SDS011;59898;52.786;6.892;2023-07-28T10:38:41;8.68;;;6.60;;
52668;SDS011;59898;52.786;6.892;2023-07-28T10:42:09;14.65;;;7.68;;
52668;SDS011;59898;52.786;6.892;2023-07-28T10:45:30;7.45;;;6.22;;
52668;SDS011;59898;52.786;6.892;2023-07-28T10:48:52;9.07;;;6.05;;
52668;SDS011;59898;52.786;6.892;2023-07-28T10:52:13;15.82;;;7.75;;
52668;SDS011;59898;52.786;6.892;2023-07-28T10:55:36;12.00;;;7.50;;
52668;SDS011;59898;52.786;6.892;2023-07-28T10:59:00;14.98;;;8.63;;
52668;SDS011;59898;52.786;6.892;2023-07-28T11:02:23;9.38;;;6.43;;
52668;SDS011;59898;52.786;6.892;2023-07-28T11:05:43;10.52;;;7.13;;
52668;SDS011;59898;52.786;6.892;2023-07-28T11:09:05;8.90;;;7.38;;
52668;SDS011;59898;52.786;6.892;2023-07-28T11:12:26;10.00;;;7.88;;
52668;SDS011;59898;52.786;6.892;2023-07-28T11:15:47;8.82;;;7.97;;
52668;SDS011;59898;52.786;6.892;2023-07-28T11:19:08;13.05;;;7.35;;
52668;SDS011;59898;52.786;6.892;2023-07-28T11:22:30;8.75;;;6.75;;
52668;SDS011;59898;52.786;6.892;2023-07-28T11:25:51;8.25;;;7.07;;
52668;SDS011;59898;52.786;6.892;2023-07-28T11:29:12;6.07;;;5.47;;
52668;SDS011;59898;52.786;6.892;2023-07-28T11:32:36;11.02;;;6.32;;
52668;SDS011;59898;52.786;6.892;2023-07-28T11:35:57;7.95;;;5.55;;
52668;SDS011;59898;52.786;6.892;2023-07-28T11:39:18;8.27;;;6.88;;
52668;SDS011;59898;52.786;6.892;2023-07-28T11:42:45;7.47;;;5.93;;
52668;SDS011;59898;52.786;6.892;2023-07-28T11:46:31;9.18;;;6.40;;
52668;SDS011;59898;52.786;6.892;2023-07-28T11:49:51;8.23;;;6.53;;
52668;SDS011;59898;52.786;6.892;2023-07-28T11:53:13;9.88;;;6.72;;
52668;SDS011;59898;52.786;6.892;2023-07-28T11:56:34;10.27;;;8.75;;
52668;SDS011;59898;52.786;6.892;2023-07-28T11:59:55;10.90;;;8.07;;
52668;SDS011;59898;52.786;6.892;2023-07-28T12:03:15;10.73;;;7.80;;
52668;SDS011;59898;52.786;6.892;2023-07-28T12:06:59;11.77;;;8.90;;
52668;SDS011;59898;52.786;6.892;2023-07-28T12:10:20;10.75;;;8.95;;
52668;SDS011;59898;52.786;6.892;2023-07-28T12:13:48;11.00;;;8.57;;
52668;SDS011;59898;52.786;6.892;2023-07-28T12:17:12;13.55;;;9.70;;
52668;SDS011;59898;52.786;6.892;2023-07-28T12:20:49;11.57;;;8.93;;
52668;SDS011;59898;52.786;6.892;2023-07-28T12:24:12;10.18;;;8.45;;
52668;SDS011;59898;52.786;6.892;2023-07-28T12:27:32;11.80;;;8.93;;
52668;SDS011;59898;52.786;6.892;2023-07-28T12:30:53;15.65;;;7.80;;
52668;SDS011;59898;52.786;6.892;2023-07-28T12:37:36;9.00;;;7.85;;
52668;SDS011;59898;52.786;6.892;2023-07-28T12:40:57;10.05;;;6.85;;
52668;SDS011;59898;52.786;6.892;2023-07-28T12:44:21;8.75;;;6.38;;
52668;SDS011;59898;52.786;6.892;2023-07-28T12:47:42;7.63;;;5.82;;
52668;SDS011;59898;52.786;6.892;2023-07-28T12:51:03;5.95;;;5.35;;
52668;SDS011;59898;52.786;6.892;2023-07-28T12:54:24;6.65;;;5.53;;
52668;SDS011;59898;52.786;6.892;2023-07-28T12:57:46;7.03;;;5.35;;
52668;SDS011;59898;52.786;6.892;2023-07-28T13:01:08;8.73;;;5.07;;
52668;SDS011;59898;52.786;6.892;2023-07-28T13:04:31;6.55;;;5.68;;
52668;SDS011;59898;52.786;6.892;2023-07-28T13:07:52;7.25;;;5.78;;
52668;SDS011;59898;52.786;6.892;2023-07-28T13:11:12;8.30;;;6.05;;
52668;SDS011;59898;52.786;6.892;2023-07-28T13:14:36;8.50;;;5.75;;
52668;SDS011;59898;52.786;6.892;2023-07-28T13:17:57;8.52;;;6.47;;
52668;SDS011;59898;52.786;6.892;2023-07-28T13:21:17;8.05;;;6.38;;
52668;SDS011;59898;52.786;6.892;2023-07-28T13:24:38;7.28;;;5.75;;
52668;SDS011;59898;52.786;6.892;2023-07-28T13:27:58;6.90;;;5.15;;
52668;SDS011;59898;52.786;6.892;2023-07-28T13:31:19;5.15;;;3.80;;
52668;SDS011;59898;52.786;6.892;2023-07-28T13:34:41;4.43;;;4.03;;
52668;SDS011;59898;52.786;6.892;2023-07-28T13:38:02;7.20;;;4.28;;
52668;SDS011;59898;52.786;6.892;2023-07-28T13:41:23;4.88;;;3.97;;
52668;SDS011;59898;52.786;6.892;2023-07-28T13:44:43;6.03;;;4.90;;
52668;SDS011;59898;52.786;6.892;2023-07-28T13:48:04;4.78;;;4.28;;
52668;SDS011;59898;52.786;6.892;2023-07-28T13:51:24;6.15;;;4.57;;
52668;SDS011;59898;52.786;6.892;2023-07-28T13:54:45;5.53;;;3.90;;
52668;SDS011;59898;52.786;6.892;2023-07-28T13:58:06;6.32;;;5.28;;
52668;SDS011;59898;52.786;6.892;2023-07-28T14:01:26;5.32;;;4.05;;
52668;SDS011;59898;52.786;6.892;2023-07-28T14:04:47;6.13;;;4.05;;
52668;SDS011;59898;52.786;6.892;2023-07-28T14:08:07;7.50;;;4.40;;
52668;SDS011;59898;52.786;6.892;2023-07-28T14:11:28;4.80;;;4.25;;
52668;SDS011;59898;52.786;6.892;2023-07-28T14:14:49;7.95;;;5.35;;
52668;SDS011;59898;52.786;6.892;2023-07-28T14:18:09;6.18;;;4.40;;
52668;SDS011;59898;52.786;6.892;2023-07-28T14:21:30;4.90;;;4.45;;
52668;SDS011;59898;52.786;6.892;2023-07-28T14:24:51;7.95;;;6.13;;
52668;SDS011;59898;52.786;6.892;2023-07-28T14:28:11;4.63;;;4.13;;
52668;SDS011;59898;52.786;6.892;2023-07-28T14:31:32;4.05;;;3.60;;
52668;SDS011;59898;52.786;6.892;2023-07-28T14:34:52;4.65;;;4.25;;
52668;SDS011;59898;52.786;6.892;2023-07-28T14:38:13;3.97;;;3.58;;
52668;SDS011;59898;52.786;6.892;2023-07-28T14:41:35;4.60;;;3.97;;
52668;SDS011;59898;52.786;6.892;2023-07-28T14:44:56;4.80;;;4.05;;
52668;SDS011;59898;52.786;6.892;2023-07-28T14:48:16;6.40;;;4.28;;
52668;SDS011;59898;52.786;6.892;2023-07-28T14:51:37;6.55;;;4.80;;
52668;SDS011;59898;52.786;6.892;2023-07-28T14:54:58;4.28;;;3.63;;
52668;SDS011;59898;52.786;6.892;2023-07-28T14:58:20;5.43;;;3.92;;
52668;SDS011;59898;52.786;6.892;2023-07-28T15:01:43;4.53;;;3.78;;
52668;SDS011;59898;52.786;6.892;2023-07-28T15:05:06;5.00;;;4.50;;
52668;SDS011;59898;52.786;6.892;2023-07-28T15:08:27;4.50;;;4.00;;
52668;SDS011;59898;52.786;6.892;2023-07-28T15:11:48;4.05;;;3.47;;
52668;SDS011;59898;52.786;6.892;2023-07-28T15:15:09;4.35;;;3.72;;
52668;SDS011;59898;52.786;6.892;2023-07-28T15:18:30;4.20;;;3.80;;
52668;SDS011;59898;52.786;6.892;2023-07-28T15:21:50;5.53;;;4.63;;
52668;SDS011;59898;52.786;6.892;2023-07-28T15:25:11;6.07;;;5.10;;
52668;SDS011;59898;52.786;6.892;2023-07-28T15:28:31;5.93;;;4.45;;
52668;SDS011;59898;52.786;6.892;2023-07-28T15:31:52;5.88;;;4.78;;
52668;SDS011;59898;52.786;6.892;2023-07-28T15:35:13;5.17;;;4.67;;
52668;SDS011;59898;52.786;6.892;2023-07-28T15:38:34;6.22;;;5.53;;
52668;SDS011;59898;52.786;6.892;2023-07-28T15:41:55;5.50;;;4.95;;
52668;SDS011;59898;52.786;6.892;2023-07-28T15:45:15;7.43;;;5.78;;
52668;SDS011;59898;52.786;6.892;2023-07-28T15:48:36;6.10;;;5.35;;
52668;SDS011;59898;52.786;6.892;2023-07-28T15:51:57;5.90;;;5.30;;
52668;SDS011;59898;52.786;6.892;2023-07-28T15:55:18;7.95;;;5.45;;
52668;SDS011;59898;52.786;6.892;2023-07-28T15:58:38;6.80;;;5.60;;
52668;SDS011;59898;52.786;6.892;2023-07-28T16:01:59;5.97;;;5.38;;
52668;SDS011;59898;52.786;6.892;2023-07-28T16:05:19;5.88;;;5.28;;
52668;SDS011;59898;52.786;6.892;2023-07-28T16:08:40;6.25;;;5.45;;
52668;SDS011;59898;52.786;6.892;2023-07-28T16:12:01;5.68;;;5.07;;
52668;SDS011;59898;52.786;6.892;2023-07-28T16:15:21;6.00;;;3.90;;
52668;SDS011;59898;52.786;6.892;2023-07-28T16:18:43;5.95;;;4.97;;
52668;SDS011;59898;52.786;6.892;2023-07-28T16:22:04;5.20;;;4.22;;
52668;SDS011;59898;52.786;6.892;2023-07-28T16:25:24;7.15;;;5.00;;
52668;SDS011;59898;52.786;6.892;2023-07-28T16:28:45;6.60;;;4.85;;
52668;SDS011;59898;52.786;6.892;2023-07-28T16:32:05;7.00;;;4.85;;
52668;SDS011;59898;52.786;6.892;2023-07-28T16:35:27;5.68;;;4.38;;
52668;SDS011;59898;52.786;6.892;2023-07-28T16:38:48;6.80;;;4.80;;
52668;SDS011;59898;52.786;6.892;2023-07-28T16:42:08;6.38;;;4.63;;
52668;SDS011;59898;52.786;6.892;2023-07-28T16:45:29;6.70;;;5.32;;
52668;SDS011;59898;52.786;6.892;2023-07-28T16:48:50;6.70;;;4.47;;
52668;SDS011;59898;52.786;6.892;2023-07-28T16:52:10;7.82;;;5.15;;
52668;SDS011;59898;52.786;6.892;2023-07-28T16:55:31;6.00;;;5.10;;
52668;SDS011;59898;52.786;6.892;2023-07-28T16:58:51;5.63;;;4.90;;
52668;SDS011;59898;52.786;6.892;2023-07-28T17:02:12;7.18;;;5.07;;
52668;SDS011;59898;52.786;6.892;2023-07-28T17:05:32;8.30;;;4.68;;
52668;SDS011;59898;52.786;6.892;2023-07-28T17:08:53;5.70;;;4.03;;
52668;SDS011;59898;52.786;6.892;2023-07-28T17:12:13;6.10;;;3.85;;
52668;SDS011;59898;52.786;6.892;2023-07-28T17:15:34;6.38;;;4.32;;
52668;SDS011;59898;52.786;6.892;2023-07-28T17:18:54;5.60;;;3.90;;
52668;SDS011;59898;52.786;6.892;2023-07-28T17:22:15;8.15;;;4.10;;
52668;SDS011;59898;52.786;6.892;2023-07-28T17:25:36;5.57;;;4.50;;
52668;SDS011;59898;52.786;6.892;2023-07-28T17:28:57;4.13;;;3.13;;
52668;SDS011;59898;52.786;6.892;2023-07-28T17:32:17;16.27;;;13.02;;
52668;SDS011;59898;52.786;6.892;2023-07-28T17:35:39;7.20;;;6.03;;
52668;SDS011;59898;52.786;6.892;2023-07-28T17:39:00;6.20;;;4.15;;
52668;SDS011;59898;52.786;6.892;2023-07-28T17:42:23;4.40;;;3.38;;
52668;SDS011;59898;52.786;6.892;2023-07-28T17:45:45;5.70;;;3.50;;
52668;SDS011;59898;52.786;6.892;2023-07-28T17:49:06;5.22;;;3.42;;
52668;SDS011;59898;52.786;6.892;2023-07-28T17:52:27;5.72;;;4.00;;
52668;SDS011;59898;52.786;6.892;2023-07-28T17:55:47;5.90;;;3.30;;
52668;SDS011;59898;52.786;6.892;2023-07-28T17:59:08;6.70;;;3.25;;
52668;SDS011;59898;52.786;6.892;2023-07-28T18:02:31;7.20;;;4.65;;
52668;SDS011;59898;52.786;6.892;2023-07-28T18:05:52;5.28;;;4.18;;
52668;SDS011;59898;52.786;6.892;2023-07-28T18:09:13;7.43;;;4.88;;
52668;SDS011;59898;52.786;6.892;2023-07-28T18:12:33;6.95;;;5.88;;
52668;SDS011;59898;52.786;6.892;2023-07-28T18:15:54;7.25;;;4.45;;
52668;SDS011;59898;52.786;6.892;2023-07-28T18:19:14;7.07;;;4.45;;
52668;SDS011;59898;52.786;6.892;2023-07-28T18:22:37;5.75;;;4.00;;
52668;SDS011;59898;52.786;6.892;2023-07-28T18:25:58;7.55;;;5.00;;
52668;SDS011;59898;52.786;6.892;2023-07-28T18:29:19;7.28;;;5.10;;
52668;SDS011;59898;52.786;6.892;2023-07-28T18:32:39;8.52;;;4.72;;
52668;SDS011;59898;52.786;6.892;2023-07-28T18:36:02;6.32;;;4.63;;
52668;SDS011;59898;52.786;6.892;2023-07-28T18:39:23;7.13;;;4.57;;
52668;SDS011;59898;52.786;6.892;2023-07-28T18:42:43;5.25;;;3.95;;
52668;SDS011;59898;52.786;6.892;2023-07-28T18:46:04;4.78;;;4.30;;
52668;SDS011;59898;52.786;6.892;2023-07-28T18:49:24;6.03;;;4.35;;
52668;SDS011;59898;52.786;6.892;2023-07-28T18:52:45;5.10;;;4.60;;
52668;SDS011;59898;52.786;6.892;2023-07-28T18:56:06;5.75;;;4.95;;
52668;SDS011;59898;52.786;6.892;2023-07-28T18:59:26;20.40;;;17.67;;
52668;SDS011;59898;52.786;6.892;2023-07-28T19:02:47;7.20;;;6.45;;
52668;SDS011;59898;52.786;6.892;2023-07-28T19:06:14;9.25;;;6.10;;
52668;SDS011;59898;52.786;6.892;2023-07-28T19:09:40;7.15;;;5.40;;
52668;SDS011;59898;52.786;6.892;2023-07-28T19:13:00;6.93;;;5.30;;
52668;SDS011;59898;52.786;6.892;2023-07-28T19:16:21;6.00;;;5.32;;
52668;SDS011;59898;52.786;6.892;2023-07-28T19:19:41;10.55;;;6.22;;
52668;SDS011;59898;52.786;6.892;2023-07-28T19:23:03;7.47;;;6.43;;
52668;SDS011;59898;52.786;6.892;2023-07-28T19:26:24;7.97;;;5.63;;
52668;SDS011;59898;52.786;6.892;2023-07-28T19:29:45;7.28;;;5.28;;
52668;SDS011;59898;52.786;6.892;2023-07-28T19:33:05;9.52;;;5.38;;
52668;SDS011;59898;52.786;6.892;2023-07-28T19:36:26;7.88;;;5.05;;
52668;SDS011;59898;52.786;6.892;2023-07-28T19:39:47;6.65;;;5.50;;
52668;SDS011;59898;52.786;6.892;2023-07-28T19:43:08;11.40;;;6.60;;
52668;SDS011;59898;52.786;6.892;2023-07-28T19:46:29;7.22;;;5.22;;
52668;SDS011;59898;52.786;6.892;2023-07-28T19:49:50;5.60;;;4.93;;
52668;SDS011;59898;52.786;6.892;2023-07-28T19:53:10;5.97;;;5.25;;
52668;SDS011;59898;52.786;6.892;2023-07-28T19:56:31;6.07;;;4.35;;
52668;SDS011;59898;52.786;6.892;2023-07-28T19:59:51;4.85;;;4.10;;